Terminal Aerodrome Forecast
Issued by NWS

Current Version | Previous Version | Graphics & Text | Print | Product List | Glossary On
Versions: 1 2 3 4 5 6 7 8 9 10 11 12 13 14 15 16 17 18 19
408
FTUS41 KILN 251720
TAFLUK
TAF
KLUK 251720Z 2518/2618 27013G23KT P6SM SCT050
     FM260200 28005KT P6SM FEW200
     FM261500 28008KT P6SM SCT150=

USA.gov is the U.S. government's official web portal to all federal, state and local government web resources and services.